sensor_id;sensor_type;location;lat;lon;timestamp;pressure;altitude;pressure_sealevel;temperature;humidity
41515;BME280;27247;48.020;16.720;2023-06-26T00:00:12;99922.38;;;17.15;94.23
41515;BME280;27247;48.020;16.720;2023-06-26T00:04:23;99914.75;;;17.06;94.24
41515;BME280;27247;48.020;16.720;2023-06-26T00:08:33;99907.50;;;17.06;94.06
41515;BME280;27247;48.020;16.720;2023-06-26T00:12:43;99911.25;;;16.99;95.03
41515;BME280;27247;48.020;16.720;2023-06-26T00:16:54;99910.50;;;16.85;96.23
41515;BME280;27247;48.020;16.720;2023-06-26T00:21:04;99909.19;;;17.01;96.50
41515;BME280;27247;48.020;16.720;2023-06-26T00:25:14;99914.84;;;16.86;97.32
41515;BME280;27247;48.020;16.720;2023-06-26T00:29:25;99904.34;;;17.09;97.27
41515;BME280;27247;48.020;16.720;2023-06-26T00:33:35;99914.72;;;17.12;97.50
41515;BME280;27247;48.020;16.720;2023-06-26T00:37:45;99913.28;;;17.10;97.31
41515;BME280;27247;48.020;16.720;2023-06-26T00:41:56;99917.22;;;17.14;97.48
41515;BME280;27247;48.020;16.720;2023-06-26T00:46:09;99920.56;;;17.09;96.86
41515;BME280;27247;48.020;16.720;2023-06-26T00:50:20;99917.28;;;17.01;96.57
41515;BME280;27247;48.020;16.720;2023-06-26T00:54:31;99914.31;;;17.09;96.22
41515;BME280;27247;48.020;16.720;2023-06-26T00:58:41;99903.09;;;17.12;96.48
41515;BME280;27247;48.020;16.720;2023-06-26T01:02:51;99908.72;;;17.10;96.39
41515;BME280;27247;48.020;16.720;2023-06-26T01:07:02;99901.22;;;17.12;96.31
41515;BME280;27247;48.020;16.720;2023-06-26T01:11:14;99900.00;;;17.08;96.20
41515;BME280;27247;48.020;16.720;2023-06-26T01:15:25;99890.69;;;17.04;95.88
41515;BME280;27247;48.020;16.720;2023-06-26T01:19:35;99900.22;;;17.07;96.01
41515;BME280;27247;48.020;16.720;2023-06-26T01:24:22;99895.25;;;17.04;95.68
41515;BME280;27247;48.020;16.720;2023-06-26T01:28:41;99890.53;;;16.92;96.36
41515;BME280;27247;48.020;16.720;2023-06-26T01:32:52;99897.59;;;16.94;96.45
41515;BME280;27247;48.020;16.720;2023-06-26T01:37:02;99890.13;;;16.89;96.50
41515;BME280;27247;48.020;16.720;2023-06-26T01:41:13;99882.50;;;16.79;97.26
41515;BME280;27247;48.020;16.720;2023-06-26T01:45:29;99871.91;;;16.78;97.28
41515;BME280;27247;48.020;16.720;2023-06-26T01:50:13;99883.31;;;16.80;97.24
41515;BME280;27247;48.020;16.720;2023-06-26T01:54:25;99869.66;;;16.75;96.86
41515;BME280;27247;48.020;16.720;2023-06-26T01:58:43;99878.94;;;16.85;96.59
41515;BME280;27247;48.020;16.720;2023-06-26T02:02:53;99872.13;;;16.76;96.50
41515;BME280;27247;48.020;16.720;2023-06-26T02:07:04;99875.88;;;16.75;96.21
41515;BME280;27247;48.020;16.720;2023-06-26T02:11:14;99875.69;;;16.70;96.52
41515;BME280;27247;48.020;16.720;2023-06-26T02:15:25;99890.44;;;16.54;96.32
41515;BME280;27247;48.020;16.720;2023-06-26T02:19:35;99880.88;;;16.52;96.54
41515;BME280;27247;48.020;16.720;2023-06-26T02:23:45;99882.97;;;16.50;96.90
41515;BME280;27247;48.020;16.720;2023-06-26T02:27:55;99876.75;;;16.49;96.60
41515;BME280;27247;48.020;16.720;2023-06-26T02:32:06;99882.56;;;16.46;96.29
41515;BME280;27247;48.020;16.720;2023-06-26T02:36:16;99879.47;;;16.43;95.73
41515;BME280;27247;48.020;16.720;2023-06-26T02:40:27;99883.47;;;16.27;95.66
41515;BME280;27247;48.020;16.720;2023-06-26T02:44:37;99887.44;;;16.11;95.84
41515;BME280;27247;48.020;16.720;2023-06-26T02:48:48;99882.06;;;16.05;96.79
41515;BME280;27247;48.020;16.720;2023-06-26T02:52:58;99875.41;;;16.14;97.19
41515;BME280;27247;48.020;16.720;2023-06-26T02:57:08;99883.69;;;16.12;97.54
41515;BME280;27247;48.020;16.720;2023-06-26T03:01:19;99890.53;;;16.08;98.18
41515;BME280;27247;48.020;16.720;2023-06-26T03:05:30;99884.53;;;16.06;98.28
41515;BME280;27247;48.020;16.720;2023-06-26T03:09:41;99890.13;;;16.11;97.78
41515;BME280;27247;48.020;16.720;2023-06-26T03:13:51;99897.59;;;16.09;98.31
41515;BME280;27247;48.020;16.720;2023-06-26T03:18:01;99896.16;;;15.93;99.00
41515;BME280;27247;48.020;16.720;2023-06-26T03:22:11;99893.88;;;16.04;99.00
41515;BME280;27247;48.020;16.720;2023-06-26T03:26:22;99904.25;;;16.07;99.27
41515;BME280;27247;48.020;16.720;2023-06-26T03:30:37;99903.81;;;16.03;98.95
41515;BME280;27247;48.020;16.720;2023-06-26T03:34:47;99911.50;;;16.06;100.00
41515;BME280;27247;48.020;16.720;2023-06-26T03:38:58;99903.78;;;16.23;100.00
41515;BME280;27247;48.020;16.720;2023-06-26T03:43:08;99908.94;;;16.44;100.00
41515;BME280;27247;48.020;16.720;2023-06-26T03:47:18;99913.25;;;16.58;99.13
41515;BME280;27247;48.020;16.720;2023-06-26T03:51:29;99921.94;;;16.60;98.30
41515;BME280;27247;48.020;16.720;2023-06-26T03:55:39;99916.13;;;16.64;98.28
41515;BME280;27247;48.020;16.720;2023-06-26T03:59:50;99921.56;;;16.70;98.75
41515;BME280;27247;48.020;16.720;2023-06-26T04:04:00;99924.06;;;16.72;98.90
41515;BME280;27247;48.020;16.720;2023-06-26T04:08:11;99922.38;;;16.77;98.93
41515;BME280;27247;48.020;16.720;2023-06-26T04:12:21;99924.41;;;16.88;98.50
41515;BME280;27247;48.020;16.720;2023-06-26T04:16:31;99923.97;;;16.91;98.65
41515;BME280;27247;48.020;16.720;2023-06-26T04:21:07;99924.56;;;17.00;98.01
41515;BME280;27247;48.020;16.720;2023-06-26T04:25:17;99920.16;;;17.06;97.75
41515;BME280;27247;48.020;16.720;2023-06-26T04:29:28;99921.78;;;17.13;97.72
41515;BME280;27247;48.020;16.720;2023-06-26T04:33:38;99917.81;;;17.16;98.11
41515;BME280;27247;48.020;16.720;2023-06-26T04:37:49;99920.69;;;17.21;97.96
41515;BME280;27247;48.020;16.720;2023-06-26T04:41:59;99923.53;;;17.33;98.22
41515;BME280;27247;48.020;16.720;2023-06-26T04:46:09;99930.94;;;17.44;97.73
41515;BME280;27247;48.020;16.720;2023-06-26T04:50:21;99926.31;;;17.51;98.24
41515;BME280;27247;48.020;16.720;2023-06-26T04:54:32;99927.75;;;17.53;98.97
41515;BME280;27247;48.020;16.720;2023-06-26T04:58:42;99925.41;;;17.64;98.51
41515;BME280;27247;48.020;16.720;2023-06-26T05:02:52;99928.94;;;17.71;99.44
41515;BME280;27247;48.020;16.720;2023-06-26T05:07:10;99931.94;;;17.88;99.79
41515;BME280;27247;48.020;16.720;2023-06-26T05:11:20;99935.41;;;17.95;100.00
41515;BME280;27247;48.020;16.720;2023-06-26T05:15:31;99928.00;;;18.08;100.00
41515;BME280;27247;48.020;16.720;2023-06-26T05:19:41;99930.19;;;18.18;100.00
41515;BME280;27247;48.020;16.720;2023-06-26T05:23:55;99929.25;;;18.31;98.29
41515;BME280;27247;48.020;16.720;2023-06-26T05:28:07;99934.13;;;18.40;98.35
41515;BME280;27247;48.020;16.720;2023-06-26T05:32:20;99941.50;;;18.51;95.21
41515;BME280;27247;48.020;16.720;2023-06-26T05:36:31;99943.84;;;18.73;95.08
41515;BME280;27247;48.020;16.720;2023-06-26T05:40:43;99939.09;;;18.87;93.88
41515;BME280;27247;48.020;16.720;2023-06-26T05:44:54;99938.91;;;19.00;92.76
41515;BME280;27247;48.020;16.720;2023-06-26T05:49:04;99936.03;;;19.13;93.38
41515;BME280;27247;48.020;16.720;2023-06-26T05:53:15;99938.94;;;19.30;92.86
41515;BME280;27247;48.020;16.720;2023-06-26T05:57:29;99944.38;;;19.41;92.15
41515;BME280;27247;48.020;16.720;2023-06-26T06:01:40;99939.16;;;19.58;92.22
41515;BME280;27247;48.020;16.720;2023-06-26T06:05:50;99941.72;;;19.83;92.09
41515;BME280;27247;48.020;16.720;2023-06-26T06:10:04;99934.31;;;20.02;89.66
41515;BME280;27247;48.020;16.720;2023-06-26T06:14:14;99935.97;;;20.15;87.50
41515;BME280;27247;48.020;16.720;2023-06-26T06:18:25;99932.22;;;20.39;87.30
41515;BME280;27247;48.020;16.720;2023-06-26T06:22:35;99928.66;;;20.50;85.45
41515;BME280;27247;48.020;16.720;2023-06-26T06:26:45;99927.81;;;20.73;85.67
41515;BME280;27247;48.020;16.720;2023-06-26T06:30:56;99926.94;;;20.96;86.10
41515;BME280;27247;48.020;16.720;2023-06-26T06:35:06;99926.50;;;21.27;85.02
41515;BME280;27247;48.020;16.720;2023-06-26T06:39:19;99919.53;;;21.48;83.33
41515;BME280;27247;48.020;16.720;2023-06-26T06:43:30;99924.59;;;21.73;83.00
41515;BME280;27247;48.020;16.720;2023-06-26T06:47:40;99921.59;;;22.03;82.39
41515;BME280;27247;48.020;16.720;2023-06-26T06:51:50;99923.81;;;22.23;78.27
41515;BME280;27247;48.020;16.720;2023-06-26T06:56:01;99908.22;;;22.57;77.14
41515;BME280;27247;48.020;16.720;2023-06-26T07:00:12;99921.44;;;22.87;76.90
41515;BME280;27247;48.020;16.720;2023-06-26T07:04:24;99914.97;;;23.15;73.24
41515;BME280;27247;48.020;16.720;2023-06-26T07:08:34;99917.44;;;23.43;72.36
41515;BME280;27247;48.020;16.720;2023-06-26T07:12:45;99908.38;;;23.65;70.50
41515;BME280;27247;48.020;16.720;2023-06-26T07:16:55;99914.16;;;24.00;70.05
41515;BME280;27247;48.020;16.720;2023-06-26T07:21:06;99913.97;;;24.12;67.47
41515;BME280;27247;48.020;16.720;2023-06-26T07:25:16;99919.25;;;24.24;65.88
41515;BME280;27247;48.020;16.720;2023-06-26T07:29:26;99917.47;;;24.44;66.06
41515;BME280;27247;48.020;16.720;2023-06-26T07:33:37;99906.31;;;24.51;66.14
41515;BME280;27247;48.020;16.720;2023-06-26T07:37:47;99912.47;;;24.83;65.55
41515;BME280;27247;48.020;16.720;2023-06-26T07:41:59;99909.88;;;25.09;64.42
41515;BME280;27247;48.020;16.720;2023-06-26T07:46:09;99912.66;;;25.24;64.93
41515;BME280;27247;48.020;16.720;2023-06-26T07:50:20;99911.34;;;25.47;63.28
41515;BME280;27247;48.020;16.720;2023-06-26T07:54:32;99910.25;;;25.58;63.25
41515;BME280;27247;48.020;16.720;2023-06-26T07:58:43;99909.47;;;25.78;64.07
41515;BME280;27247;48.020;16.720;2023-06-26T08:02:53;99906.44;;;25.95;61.31
41515;BME280;27247;48.020;16.720;2023-06-26T08:07:04;99915.22;;;25.87;61.56
41515;BME280;27247;48.020;16.720;2023-06-26T08:11:15;99906.75;;;26.03;61.44
41515;BME280;27247;48.020;16.720;2023-06-26T08:15:25;99906.16;;;26.22;60.62
41515;BME280;27247;48.020;16.720;2023-06-26T08:19:35;99911.34;;;26.28;58.79
41515;BME280;27247;48.020;16.720;2023-06-26T08:23:46;99908.06;;;26.42;59.27
41515;BME280;27247;48.020;16.720;2023-06-26T08:27:56;99908.56;;;26.54;60.06
41515;BME280;27247;48.020;16.720;2023-06-26T08:32:06;99906.66;;;26.54;58.93
41515;BME280;27247;48.020;16.720;2023-06-26T08:36:17;99905.13;;;26.92;58.68
41515;BME280;27247;48.020;16.720;2023-06-26T08:40:28;99903.75;;;27.05;57.91
41515;BME280;27247;48.020;16.720;2023-06-26T08:44:38;99904.50;;;27.21;57.47
41515;BME280;27247;48.020;16.720;2023-06-26T08:48:54;99903.16;;;27.13;57.74
41515;BME280;27247;48.020;16.720;2023-06-26T08:53:29;99900.72;;;27.12;58.09
41515;BME280;27247;48.020;16.720;2023-06-26T08:57:43;99901.56;;;27.07;58.39
41515;BME280;27247;48.020;16.720;2023-06-26T09:01:54;99903.31;;;27.32;57.64
41515;BME280;27247;48.020;16.720;2023-06-26T09:06:04;99887.19;;;27.64;55.53
41515;BME280;27247;48.020;16.720;2023-06-26T09:10:15;99887.72;;;27.66;56.54
41515;BME280;27247;48.020;16.720;2023-06-26T09:14:25;99883.75;;;27.44;57.16
41515;BME280;27247;48.020;16.720;2023-06-26T09:18:35;99879.22;;;27.24;57.24
41515;BME280;27247;48.020;16.720;2023-06-26T09:22:47;99877.66;;;27.52;57.88
41515;BME280;27247;48.020;16.720;2023-06-26T09:26:58;99873.75;;;27.92;57.55
41515;BME280;27247;48.020;16.720;2023-06-26T09:31:08;99872.97;;;28.20;56.41
41515;BME280;27247;48.020;16.720;2023-06-26T09:35:20;99870.19;;;28.49;55.88
41515;BME280;27247;48.020;16.720;2023-06-26T09:39:31;99870.47;;;28.72;56.85
41515;BME280;27247;48.020;16.720;2023-06-26T09:43:50;99858.41;;;28.91;53.91
41515;BME280;27247;48.020;16.720;2023-06-26T09:48:01;99857.94;;;28.84;55.70
41515;BME280;27247;48.020;16.720;2023-06-26T09:52:17;99855.97;;;28.42;55.15
41515;BME280;27247;48.020;16.720;2023-06-26T09:56:28;99853.88;;;28.34;55.70
41515;BME280;27247;48.020;16.720;2023-06-26T10:00:40;99847.56;;;28.76;55.49
41515;BME280;27247;48.020;16.720;2023-06-26T10:04:50;99851.19;;;28.96;54.67
41515;BME280;27247;48.020;16.720;2023-06-26T10:09:01;99854.78;;;28.72;56.29
41515;BME280;27247;48.020;16.720;2023-06-26T10:13:22;99838.16;;;28.58;55.15
41515;BME280;27247;48.020;16.720;2023-06-26T10:17:35;99840.13;;;28.77;55.53
41515;BME280;27247;48.020;16.720;2023-06-26T10:21:46;99832.22;;;29.32;55.68
41515;BME280;27247;48.020;16.720;2023-06-26T10:25:58;99839.44;;;29.79;55.01
41515;BME280;27247;48.020;16.720;2023-06-26T10:30:15;99818.50;;;30.10;54.08
41515;BME280;27247;48.020;16.720;2023-06-26T10:34:26;99819.25;;;30.30;53.71
41515;BME280;27247;48.020;16.720;2023-06-26T10:38:57;99824.56;;;30.67;52.37
41515;BME280;27247;48.020;16.720;2023-06-26T10:43:09;99816.16;;;31.08;54.10
41515;BME280;27247;48.020;16.720;2023-06-26T10:47:29;99813.31;;;30.64;50.67
41515;BME280;27247;48.020;16.720;2023-06-26T10:51:53;99810.03;;;30.75;52.94
41515;BME280;27247;48.020;16.720;2023-06-26T10:56:06;99807.38;;;30.57;51.21
41515;BME280;27247;48.020;16.720;2023-06-26T11:00:16;99800.69;;;29.43;52.77
41515;BME280;27247;48.020;16.720;2023-06-26T11:08:53;99809.97;;;29.47;51.82
41515;BME280;27247;48.020;16.720;2023-06-26T11:13:04;99806.44;;;29.60;52.07
41515;BME280;27247;48.020;16.720;2023-06-26T11:17:18;99803.28;;;30.13;52.62
41515;BME280;27247;48.020;16.720;2023-06-26T11:21:29;99795.22;;;30.71;52.11
41515;BME280;27247;48.020;16.720;2023-06-26T11:25:39;99791.19;;;31.27;50.54
41515;BME280;27247;48.020;16.720;2023-06-26T11:29:50;99792.19;;;31.31;50.45
41515;BME280;27247;48.020;16.720;2023-06-26T11:34:04;99786.13;;;30.71;49.53
41515;BME280;27247;48.020;16.720;2023-06-26T11:38:15;99789.50;;;30.54;50.16
41515;BME280;27247;48.020;16.720;2023-06-26T11:42:25;99784.25;;;30.80;49.80
41515;BME280;27247;48.020;16.720;2023-06-26T11:46:36;99777.81;;;31.43;48.99
41515;BME280;27247;48.020;16.720;2023-06-26T11:50:50;99773.81;;;31.13;49.27
41515;BME280;27247;48.020;16.720;2023-06-26T11:55:04;99772.28;;;31.43;49.07
41515;BME280;27247;48.020;16.720;2023-06-26T11:59:14;99774.97;;;31.57;49.33
41515;BME280;27247;48.020;16.720;2023-06-26T12:03:24;99768.50;;;31.17;48.60
41515;BME280;27247;48.020;16.720;2023-06-26T12:07:35;99769.41;;;31.26;49.11
41515;BME280;27247;48.020;16.720;2023-06-26T12:11:48;99762.25;;;31.78;48.83
41515;BME280;27247;48.020;16.720;2023-06-26T12:16:02;99761.00;;;31.84;47.98
41515;BME280;27247;48.020;16.720;2023-06-26T12:20:20;99756.88;;;32.21;46.02
41515;BME280;27247;48.020;16.720;2023-06-26T12:24:31;99752.50;;;32.20;48.73
41515;BME280;27247;48.020;16.720;2023-06-26T12:28:44;99746.75;;;31.68;46.21
41515;BME280;27247;48.020;16.720;2023-06-26T12:32:54;99746.41;;;31.17;47.36
41515;BME280;27247;48.020;16.720;2023-06-26T12:37:10;99745.69;;;30.89;47.89
41515;BME280;27247;48.020;16.720;2023-06-26T12:41:24;99734.44;;;30.49;47.59
41515;BME280;27247;48.020;16.720;2023-06-26T12:45:38;99743.09;;;30.56;48.88
41515;BME280;27247;48.020;16.720;2023-06-26T12:49:51;99734.22;;;30.95;47.96
41515;BME280;27247;48.020;16.720;2023-06-26T12:54:01;99731.81;;;31.02;48.15
41515;BME280;27247;48.020;16.720;2023-06-26T12:58:11;99728.72;;;31.40;48.24
41515;BME280;27247;48.020;16.720;2023-06-26T13:02:22;99727.94;;;32.19;48.71
41515;BME280;27247;48.020;16.720;2023-06-26T13:06:32;99715.00;;;32.36;48.67
41515;BME280;27247;48.020;16.720;2023-06-26T13:10:43;99715.16;;;32.31;46.77
41515;BME280;27247;48.020;16.720;2023-06-26T13:14:53;99710.59;;;32.27;47.32
41515;BME280;27247;48.020;16.720;2023-06-26T13:19:03;99705.25;;;32.39;49.27
41515;BME280;27247;48.020;16.720;2023-06-26T13:23:14;99709.97;;;32.38;48.08
41515;BME280;27247;48.020;16.720;2023-06-26T13:27:25;99708.69;;;32.79;47.38
41515;BME280;27247;48.020;16.720;2023-06-26T13:31:35;99709.03;;;32.78;48.19
41515;BME280;27247;48.020;16.720;2023-06-26T13:35:46;99707.53;;;32.46;47.35
41515;BME280;27247;48.020;16.720;2023-06-26T13:39:57;99702.19;;;32.01;48.76
41515;BME280;27247;48.020;16.720;2023-06-26T13:44:09;99695.53;;;32.11;48.51
41515;BME280;27247;48.020;16.720;2023-06-26T13:48:20;99696.44;;;32.37;48.59
41515;BME280;27247;48.020;16.720;2023-06-26T13:52:30;99688.13;;;33.15;45.54
41515;BME280;27247;48.020;16.720;2023-06-26T13:56:40;99680.66;;;33.33;47.23
41515;BME280;27247;48.020;16.720;2023-06-26T14:00:51;99667.75;;;33.37;45.53
41515;BME280;27247;48.020;16.720;2023-06-26T14:05:01;99685.69;;;32.27;45.99
41515;BME280;27247;48.020;16.720;2023-06-26T14:09:12;99686.69;;;32.65;47.84
41515;BME280;27247;48.020;16.720;2023-06-26T14:13:22;99678.91;;;32.85;46.22
41515;BME280;27247;48.020;16.720;2023-06-26T14:17:34;99672.22;;;32.86;46.73
41515;BME280;27247;48.020;16.720;2023-06-26T14:21:44;99671.72;;;32.58;45.65
41515;BME280;27247;48.020;16.720;2023-06-26T14:25:54;99661.97;;;32.52;46.69
41515;BME280;27247;48.020;16.720;2023-06-26T14:30:05;99661.97;;;31.86;47.51
41515;BME280;27247;48.020;16.720;2023-06-26T14:34:17;99665.50;;;31.38;47.97
41515;BME280;27247;48.020;16.720;2023-06-26T14:38:28;99657.69;;;31.71;50.44
41515;BME280;27247;48.020;16.720;2023-06-26T14:42:38;99651.94;;;32.16;49.15
41515;BME280;27247;48.020;16.720;2023-06-26T14:46:48;99647.16;;;32.48;47.99
41515;BME280;27247;48.020;16.720;2023-06-26T14:50:59;99650.88;;;32.26;47.60
41515;BME280;27247;48.020;16.720;2023-06-26T14:55:10;99643.97;;;32.15;47.01
41515;BME280;27247;48.020;16.720;2023-06-26T14:59:20;99650.34;;;31.67;47.67
41515;BME280;27247;48.020;16.720;2023-06-26T15:03:31;99622.47;;;31.46;48.57
41515;BME280;27247;48.020;16.720;2023-06-26T15:07:41;99628.28;;;31.75;47.90
41515;BME280;27247;48.020;16.720;2023-06-26T15:11:51;99627.38;;;30.96;48.03
41515;BME280;27247;48.020;16.720;2023-06-26T15:16:02;99617.41;;;30.86;49.40
41515;BME280;27247;48.020;16.720;2023-06-26T15:20:12;99614.09;;;30.75;48.79
41515;BME280;27247;48.020;16.720;2023-06-26T15:24:25;99620.31;;;30.59;50.10
41515;BME280;27247;48.020;16.720;2023-06-26T15:28:35;99620.00;;;30.10;51.08
41515;BME280;27247;48.020;16.720;2023-06-26T15:32:46;99616.63;;;30.13;49.47
41515;BME280;27247;48.020;16.720;2023-06-26T15:36:57;99606.22;;;30.10;50.26
41515;BME280;27247;48.020;16.720;2023-06-26T15:41:07;99607.72;;;30.30;49.93
41515;BME280;27247;48.020;16.720;2023-06-26T15:45:18;99600.53;;;30.07;50.22
41515;BME280;27247;48.020;16.720;2023-06-26T15:49:29;99598.06;;;29.92;49.91
41515;BME280;27247;48.020;16.720;2023-06-26T15:53:39;99600.91;;;30.00;50.40
41515;BME280;27247;48.020;16.720;2023-06-26T15:57:51;99594.56;;;30.27;49.97
41515;BME280;27247;48.020;16.720;2023-06-26T16:02:01;99589.81;;;30.41;51.39
41515;BME280;27247;48.020;16.720;2023-06-26T16:06:11;99585.16;;;30.50;51.27
41515;BME280;27247;48.020;16.720;2023-06-26T16:10:22;99586.25;;;30.41;51.16
41515;BME280;27247;48.020;16.720;2023-06-26T16:14:32;99577.22;;;30.13;49.78
41515;BME280;27247;48.020;16.720;2023-06-26T16:18:43;99569.56;;;30.24;49.90
41515;BME280;27247;48.020;16.720;2023-06-26T16:22:53;99565.25;;;30.31;50.03
41515;BME280;27247;48.020;16.720;2023-06-26T16:27:05;99562.75;;;30.07;51.01
41515;BME280;27247;48.020;16.720;2023-06-26T16:31:16;99560.53;;;29.82;53.56
41515;BME280;27247;48.020;16.720;2023-06-26T16:35:27;99553.84;;;29.61;52.58
41515;BME280;27247;48.020;16.720;2023-06-26T16:39:37;99551.19;;;29.42;52.94
41515;BME280;27247;48.020;16.720;2023-06-26T16:43:49;99557.25;;;29.44;53.64
41515;BME280;27247;48.020;16.720;2023-06-26T16:47:59;99549.53;;;29.00;53.13
41515;BME280;27247;48.020;16.720;2023-06-26T16:52:10;99546.88;;;28.62;55.20
41515;BME280;27247;48.020;16.720;2023-06-26T16:56:20;99543.88;;;28.45;54.86
41515;BME280;27247;48.020;16.720;2023-06-26T17:00:31;99546.50;;;28.36;54.19
41515;BME280;27247;48.020;16.720;2023-06-26T17:04:41;99543.53;;;28.33;56.11
41515;BME280;27247;48.020;16.720;2023-06-26T17:08:52;99536.63;;;28.35;57.77
41515;BME280;27247;48.020;16.720;2023-06-26T17:13:02;99538.13;;;28.27;58.21
41515;BME280;27247;48.020;16.720;2023-06-26T17:17:12;99540.41;;;28.20;56.75
41515;BME280;27247;48.020;16.720;2023-06-26T17:21:25;99547.00;;;28.19;56.33
41515;BME280;27247;48.020;16.720;2023-06-26T17:25:36;99544.78;;;28.21;57.43
41515;BME280;27247;48.020;16.720;2023-06-26T17:29:46;99542.50;;;28.28;59.18
41515;BME280;27247;48.020;16.720;2023-06-26T17:33:57;99546.19;;;28.19;60.37
41515;BME280;27247;48.020;16.720;2023-06-26T17:38:07;99551.09;;;28.03;61.93
41515;BME280;27247;48.020;16.720;2023-06-26T17:42:18;99550.03;;;27.80;61.94
41515;BME280;27247;48.020;16.720;2023-06-26T17:46:28;99547.28;;;27.61;60.14
41515;BME280;27247;48.020;16.720;2023-06-26T17:50:38;99544.91;;;27.31;60.80
41515;BME280;27247;48.020;16.720;2023-06-26T17:54:49;99546.25;;;27.33;61.66
41515;BME280;27247;48.020;16.720;2023-06-26T17:58:59;99544.66;;;27.27;63.71
41515;BME280;27247;48.020;16.720;2023-06-26T18:03:09;99535.56;;;27.32;64.83
41515;BME280;27247;48.020;16.720;2023-06-26T18:07:20;99535.75;;;27.17;66.44
41515;BME280;27247;48.020;16.720;2023-06-26T18:11:32;99535.06;;;26.72;64.86
41515;BME280;27247;48.020;16.720;2023-06-26T18:15:43;99537.72;;;26.53;64.77
41515;BME280;27247;48.020;16.720;2023-06-26T18:19:53;99538.97;;;26.32;65.70
41515;BME280;27247;48.020;16.720;2023-06-26T18:24:04;99541.50;;;26.23;64.69
41515;BME280;27247;48.020;16.720;2023-06-26T18:28:15;99540.69;;;26.23;64.00
41515;BME280;27247;48.020;16.720;2023-06-26T18:32:25;99546.69;;;26.25;65.03
41515;BME280;27247;48.020;16.720;2023-06-26T18:36:36;99535.06;;;25.99;65.75
41515;BME280;27247;48.020;16.720;2023-06-26T18:40:47;99534.69;;;25.71;66.95
41515;BME280;27247;48.020;16.720;2023-06-26T18:44:57;99541.31;;;25.55;67.40
41515;BME280;27247;48.020;16.720;2023-06-26T18:49:08;99540.59;;;25.34;68.07
41515;BME280;27247;48.020;16.720;2023-06-26T18:53:18;99545.31;;;25.19;68.26
41515;BME280;27247;48.020;16.720;2023-06-26T18:57:28;99554.94;;;25.01;68.64
41515;BME280;27247;48.020;16.720;2023-06-26T19:01:39;99555.69;;;24.96;68.96
41515;BME280;27247;48.020;16.720;2023-06-26T19:05:50;99558.19;;;25.08;69.46
41515;BME280;27247;48.020;16.720;2023-06-26T19:10:00;99553.00;;;25.06;70.54
41515;BME280;27247;48.020;16.720;2023-06-26T19:14:10;99567.50;;;24.41;70.31
41515;BME280;27247;48.020;16.720;2023-06-26T19:18:21;99565.88;;;24.35;69.32
41515;BME280;27247;48.020;16.720;2023-06-26T19:22:31;99569.13;;;24.62;69.36
41515;BME280;27247;48.020;16.720;2023-06-26T19:26:42;99562.31;;;24.39;69.57
41515;BME280;27247;48.020;16.720;2023-06-26T19:30:52;99568.31;;;24.46;71.07
41515;BME280;27247;48.020;16.720;2023-06-26T19:35:03;99562.78;;;24.01;68.89
41515;BME280;27247;48.020;16.720;2023-06-26T19:39:14;99564.38;;;23.92;69.25
41515;BME280;27247;48.020;16.720;2023-06-26T19:43:25;99572.09;;;24.10;69.55
41515;BME280;27247;48.020;16.720;2023-06-26T19:47:35;99580.28;;;24.15;69.49
41515;BME280;27247;48.020;16.720;2023-06-26T19:51:47;99567.09;;;23.86;69.18
41515;BME280;27247;48.020;16.720;2023-06-26T19:55:57;99573.94;;;23.89;67.74
41515;BME280;27247;48.020;16.720;2023-06-26T20:00:09;99571.78;;;23.96;68.13
41515;BME280;27247;48.020;16.720;2023-06-26T20:04:19;99566.63;;;24.00;68.09
41515;BME280;27247;48.020;16.720;2023-06-26T20:08:30;99564.16;;;24.08;68.61
41515;BME280;27247;48.020;16.720;2023-06-26T20:12:40;99555.69;;;24.05;67.36
41515;BME280;27247;48.020;16.720;2023-06-26T20:16:51;99551.59;;;23.97;67.37
41515;BME280;27247;48.020;16.720;2023-06-26T20:21:01;99543.13;;;23.99;67.26
41515;BME280;27247;48.020;16.720;2023-06-26T20:25:11;99533.88;;;24.10;67.47
41515;BME280;27247;48.020;16.720;2023-06-26T20:29:22;99537.13;;;24.02;68.29
41515;BME280;27247;48.020;16.720;2023-06-26T20:33:32;99535.69;;;23.79;69.15
41515;BME280;27247;48.020;16.720;2023-06-26T20:37:42;99535.66;;;23.64;69.91
41515;BME280;27247;48.020;16.720;2023-06-26T20:41:53;99536.19;;;23.55;70.35
41515;BME280;27247;48.020;16.720;2023-06-26T20:46:04;99531.28;;;23.63;69.38
41515;BME280;27247;48.020;16.720;2023-06-26T20:50:15;99526.91;;;23.56;69.86
41515;BME280;27247;48.020;16.720;2023-06-26T20:54:26;99527.38;;;23.38;70.12
41515;BME280;27247;48.020;16.720;2023-06-26T20:58:36;99528.81;;;22.99;70.84
41515;BME280;27247;48.020;16.720;2023-06-26T21:02:47;99528.03;;;23.03;71.37
41515;BME280;27247;48.020;16.720;2023-06-26T21:06:57;99533.13;;;22.89;73.11
41515;BME280;27247;48.020;16.720;2023-06-26T21:11:07;99512.78;;;22.70;72.70
41515;BME280;27247;48.020;16.720;2023-06-26T21:15:18;99513.81;;;22.59;72.99
41515;BME280;27247;48.020;16.720;2023-06-26T21:19:28;99505.34;;;22.55;73.50
41515;BME280;27247;48.020;16.720;2023-06-26T21:23:38;99505.31;;;22.50;72.35
41515;BME280;27247;48.020;16.720;2023-06-26T21:27:49;99508.84;;;22.51;73.15
41515;BME280;27247;48.020;16.720;2023-06-26T21:31:59;99505.84;;;22.52;71.03
41515;BME280;27247;48.020;16.720;2023-06-26T21:36:09;99512.44;;;22.56;70.80
41515;BME280;27247;48.020;16.720;2023-06-26T21:40:20;99500.25;;;22.69;71.03
41515;BME280;27247;48.020;16.720;2023-06-26T21:44:30;99501.97;;;22.80;70.23
41515;BME280;27247;48.020;16.720;2023-06-26T21:48:40;99503.38;;;22.88;70.88
41515;BME280;27247;48.020;16.720;2023-06-26T21:52:52;99500.84;;;22.76;71.06
41515;BME280;27247;48.020;16.720;2023-06-26T21:57:02;99497.44;;;22.91;69.32